2 juillet 2022

Temps Code Temps Temp. Vue Base cloud Vent METAR/SPECI
9:00 pm
V
70 °F 6¼ mi+ - 340° 340° 11 kt METAR LFQQ 021900Z AUTO 34011KT CAVOK 21/12 Q1017 NOSIG
8:30 pm
V
72 °F 6¼ mi+ - 290° 290° 7 kt METAR LFQQ 021830Z AUTO 29007KT 240V330 CAVOK 22/12 Q1017 NOSIG
8:00 pm
V
75 °F 6¼ mi+ - 190° 190° 5 kt METAR LFQQ 021800Z AUTO 19005KT 160V220 CAVOK 24/09 Q1017 TEMPO 31010KT
7:30 pm
V
77 °F 6¼ mi+ - 200° 200° 5 kt METAR LFQQ 021730Z AUTO 20005KT 170V230 CAVOK 25/09 Q1017 BECMG 33010KT
7:00 pm
V
75 °F 6¼ mi+ - 190° 190° 6 kt METAR LFQQ 021700Z AUTO 19006KT 150V210 CAVOK 24/10 Q1018 BECMG 33010KT
6:30 pm
V
77 °F 6¼ mi+ - 180° 180° 5 kt METAR LFQQ 021630Z AUTO 18005KT 150V210 CAVOK 25/10 Q1018 BECMG 33010KT
6:00 pm
V
77 °F 6¼ mi+ - 220° 220° 9 kt METAR LFQQ 021600Z AUTO 22009KT CAVOK 25/09 Q1018 BECMG 33010KT
5:30 pm
V
77 °F 6¼ mi+ - 170° 170° 8 kt METAR LFQQ 021530Z AUTO 17008KT 140V210 CAVOK 25/10 Q1018 BECMG 33010KT
5:00 pm
V
75 °F 6¼ mi+ - 220° 220° 6 kt METAR LFQQ 021500Z AUTO 22006KT 150V280 CAVOK 24/09 Q1019 NOSIG
4:30 pm
V
75 °F 6¼ mi+ - 230° 230° 6 kt METAR LFQQ 021430Z AUTO 23006KT 170V270 CAVOK 24/09 Q1019 NOSIG
4:00 pm
V
75 °F 6¼ mi+ - 190° 190° 8 - 20 kt METAR LFQQ 021400Z AUTO 19008G20KT 140V230 CAVOK 24/10 Q1019 NOSIG
3:30 pm
V
75 °F 6¼ mi+ - 220° 220° 8 kt METAR LFQQ 021330Z AUTO 22008KT 180V280 CAVOK 24/10 Q1019 NOSIG
3:00 pm
V
73 °F 6¼ mi+ - 190° 190° 10 kt METAR LFQQ 021300Z AUTO 19010KT 160V220 CAVOK 23/09 Q1019 NOSIG
2:30 pm
V
75 °F 6¼ mi+ - 210° 210° 9 kt METAR LFQQ 021230Z AUTO 21009KT 170V260 CAVOK 24/09 Q1020 NOSIG
2:00 pm
V
75 °F 6¼ mi+ - 190° 190° 8 kt METAR LFQQ 021200Z AUTO 19008KT 140V250 CAVOK 24/10 Q1020 NOSIG
1:30 pm
V
73 °F 6¼ mi+ - 200° 200° 9 kt METAR LFQQ 021130Z AUTO 20009KT 140V240 CAVOK 23/09 Q1020 NOSIG
1:00 pm
V
73 °F 6¼ mi+ - 200° 200° 11 kt METAR LFQQ 021100Z AUTO 20011KT CAVOK 23/08 Q1020 NOSIG
12:30 pm
V
73 °F 6¼ mi+ - 200° 200° 11 kt METAR LFQQ 021030Z AUTO 20011KT 160V230 CAVOK 23/09 Q1020 NOSIG
12:00 pm
V
72 °F 6¼ mi+ - 180° 180° 9 kt METAR LFQQ 021000Z AUTO 18009KT 140V210 CAVOK 22/09 Q1020 NOSIG
11:30 am
V
70 °F 6¼ mi+ - 190° 190° 8 kt METAR LFQQ 020930Z AUTO 19008KT 150V230 CAVOK 21/11 Q1021 NOSIG
11:00 am
V
70 °F 6¼ mi+ - 170° 170° 5 kt METAR LFQQ 020900Z AUTO 17005KT 110V220 CAVOK 21/11 Q1021 NOSIG
10:30 am
V
68 °F 6¼ mi+ - 150° 150° 6 kt METAR LFQQ 020830Z AUTO 15006KT 100V200 CAVOK 20/10 Q1021 NOSIG
10:00 am
V
66 °F 6¼ mi+ - 140° 140° 6 kt METAR LFQQ 020800Z AUTO 14006KT 110V170 CAVOK 19/10 Q1021 NOSIG
9:30 am
V
66 °F 6¼ mi+ - 130° 130° 5 kt METAR LFQQ 020730Z AUTO 13005KT 100V190 CAVOK 19/09 Q1021 NOSIG
9:00 am
V
64 °F 6¼ mi+ - 150° 150° 4 kt METAR LFQQ 020700Z AUTO 15004KT 120V190 CAVOK 18/10 Q1021 NOSIG
8:30 am
V
61 °F 6¼ mi+ - 150° 150° 5 kt METAR LFQQ 020630Z AUTO 15005KT CAVOK 16/11 Q1021 NOSIG
8:00 am
V
59 °F 6¼ mi+ - Var Var 3 kt METAR LFQQ 020600Z AUTO VRB03KT CAVOK 15/11 Q1021 NOSIG
7:30 am
V
57 °F 6¼ mi+ - Var Var 2 kt METAR LFQQ 020530Z AUTO VRB02KT CAVOK 14/11 Q1021 NOSIG
7:00 am
V
54 °F 6¼ mi+ - 110° 110° 2 kt METAR LFQQ 020500Z AUTO 11002KT CAVOK 12/10 Q1021 NOSIG
6:30 am
V
52 °F 6¼ mi+ - 100° 100° 2 kt METAR LFQQ 020430Z AUTO 10002KT CAVOK 11/10 Q1022 NOSIG
6:00 am
V
52 °F 6¼ mi+ - 060° 060° 2 kt METAR LFQQ 020400Z AUTO 06002KT CAVOK 11/09 Q1022 NOSIG
5:30 am
V
52 °F 6¼ mi+ - Var Var 2 kt METAR LFQQ 020330Z AUTO VRB02KT CAVOK 11/09 Q1021 NOSIG
5:00 am
V
52 °F 6¼ mi+ - Var 000° 0 kt METAR LFQQ 020300Z AUTO 00000KT CAVOK 11/09 Q1021 NOSIG
4:30 am
V
54 °F 6¼ mi+ - 140° 140° 2 kt METAR LFQQ 020230Z AUTO 14002KT CAVOK 12/09 Q1021 NOSIG
4:00 am
V
54 °F 6¼ mi+ - Var 000° 0 kt METAR LFQQ 020200Z AUTO 00000KT CAVOK 12/09 Q1021 NOSIG
3:30 am
V
55 °F 6¼ mi+ - 160° 160° 1 kt METAR LFQQ 020130Z AUTO 16001KT CAVOK 13/09 Q1021 NOSIG
3:00 am
V
57 °F 6¼ mi+ - Var 000° 0 kt METAR LFQQ 020100Z AUTO 00000KT CAVOK 14/09 Q1022 NOSIG
2:30 am
V
57 °F 6¼ mi+ - 230° 230° 2 kt METAR LFQQ 020030Z AUTO 23002KT CAVOK 14/09 Q1022 NOSIG
2:00 am
V
57 °F 6¼ mi+ - 250° 250° 5 kt METAR LFQQ 020000Z AUTO 25005KT CAVOK 14/09 Q1022 NOSIG
1:30 am
V
59 °F 6¼ mi+ - 230° 230° 5 kt METAR LFQQ 012330Z AUTO 23005KT CAVOK 15/09 Q1022 NOSIG
1:00 am
V
59 °F 6¼ mi+ - 220° 220° 5 kt METAR LFQQ 012300Z AUTO 22005KT CAVOK 15/10 Q1022 NOSIG
12:30 am
V
61 °F 6¼ mi+ - 220° 220° 4 kt METAR LFQQ 012230Z AUTO 22004KT CAVOK 16/09 Q1022 NOSIG
12:00 am
V
61 °F 6¼ mi+ - 230° 230° 4 kt METAR LFQQ 012200Z AUTO 23004KT CAVOK 16/09 Q1022 NOSIG

1 juillet 2022

Temps Code Temps Temp. Vue Base cloud Vent METAR/SPECI
11:30 pm
V
59 °F 6¼ mi+ - 220° 220° 4 kt METAR LFQQ 012130Z AUTO 22004KT CAVOK 15/10 Q1021 NOSIG
11:00 pm
V
61 °F 6¼ mi+ - 220° 220° 3 kt METAR LFQQ 012100Z AUTO 22003KT 190V250 CAVOK 16/09 Q1021 NOSIG
10:30 pm
V
61 °F 6¼ mi+ - 270° 270° 6 kt METAR LFQQ 012030Z AUTO 27006KT CAVOK 16/09 Q1021 NOSIG
10:00 pm
V
63 °F 6¼ mi+ - 260° 260° 6 kt METAR LFQQ 012000Z AUTO 26006KT CAVOK 17/09 Q1021 NOSIG
9:30 pm
V
64 °F 6¼ mi+ - 260° 260° 6 kt METAR LFQQ 011930Z AUTO 26006KT CAVOK 18/09 Q1021 NOSIG
9:00 pm
V
66 °F 6¼ mi+ - 260° 260° 8 kt METAR LFQQ 011900Z AUTO 26008KT CAVOK 19/09 Q1020 NOSIG
8:30 pm
V
68 °F 6¼ mi+ - 250° 250° 8 kt METAR LFQQ 011830Z AUTO 25008KT CAVOK 20/09 Q1020 NOSIG
8:00 pm
V
68 °F 6¼ mi+ - 250° 250° 9 kt METAR LFQQ 011800Z AUTO 25009KT 210V280 CAVOK 20/08 Q1020 NOSIG
7:30 pm
V
68 °F 6¼ mi+ - 250° 250° 10 kt METAR LFQQ 011730Z AUTO 25010KT CAVOK 20/08 Q1020 NOSIG
7:00 pm
V
68 °F 6¼ mi+ - 240° 240° 10 kt METAR LFQQ 011700Z AUTO 24010KT 200V270 CAVOK 20/08 Q1020 NOSIG
6:30 pm
V
70 °F 6¼ mi+ - 240° 240° 8 kt METAR LFQQ 011630Z AUTO 24008KT 210V270 CAVOK 21/09 Q1019 NOSIG
6:00 pm
V
68 °F 6¼ mi+ 5.400 ft 260° 260° 8 kt METAR LFQQ 011600Z AUTO 26008KT 230V290 9999 SCT048 BKN054 BKN070 20/09 Q1019 NOSIG
5:30 pm
V
70 °F 6¼ mi+ 8.200 ft 260° 260° 12 kt METAR LFQQ 011530Z AUTO 26012KT 9999 FEW043 BKN082 21/10 Q1019 NOSIG
5:00 pm
V
68 °F 6¼ mi+ 4.300 ft 260° 260° 12 kt METAR LFQQ 011500Z AUTO 26012KT 220V280 9999 BKN043 BKN056 BKN068 20/10 Q1019 NOSIG
4:30 pm
V
68 °F 6¼ mi+ 8.200 ft 250° 250° 10 kt METAR LFQQ 011430Z AUTO 25010KT 210V290 9999 FEW044 BKN082 20/10 Q1019 NOSIG
4:00 pm
V
68 °F 6¼ mi+ 4.600 ft 250° 250° 11 kt METAR LFQQ 011400Z AUTO 25011KT 210V280 9999 FEW040 BKN046 BKN076 20/10 Q1019 NOSIG
3:30 pm
V
68 °F 6¼ mi+ - 240° 240° 10 kt METAR LFQQ 011330Z AUTO 24010KT 200V270 CAVOK 20/09 Q1019 NOSIG
3:00 pm
V
64 °F 6¼ mi+ - 240° 240° 11 kt METAR LFQQ 011300Z AUTO 24011KT 220V280 CAVOK 18/10 Q1019 NOSIG
2:30 pm
V
64 °F 6¼ mi+ 4.900 ft 260° 260° 15 kt METAR LFQQ 011230Z AUTO 26015KT 230V290 9999 FEW038 BKN049 BKN058 18/09 Q1019 NOSIG
2:00 pm
V
64 °F 6¼ mi+ 5.800 ft 280° 280° 12 kt METAR LFQQ 011200Z AUTO 28012KT 9999 SCT046/// BKN058/// BKN068/// ///TCU 18/11 Q1019 BECMG NSC
1:30 pm
V
66 °F 6¼ mi+ 5.400 ft 230° 230° 11 kt METAR LFQQ 011130Z AUTO 23011KT 200V270 9999 SCT046 BKN054 BKN072 19/09 Q1018 NOSIG
1:00 pm
V
68 °F 6¼ mi+ 6.800 ft 230° 230° 11 kt METAR LFQQ 011100Z AUTO 23011KT 190V260 9999 SCT046 SCT056 BKN068 20/09 Q1018 NOSIG
12:30 pm
V
68 °F 6¼ mi+ 5.200 ft 220° 220° 12 kt METAR LFQQ 011030Z AUTO 22012KT 180V260 9999 SCT041 BKN052 BKN062 20/09 Q1018 NOSIG
12:00 pm
V
64 °F 6¼ mi+ - 230° 230° 11 kt METAR LFQQ 011000Z AUTO 23011KT 200V260 9999 SCT039 SCT047 18/09 Q1018 NOSIG
11:30 am
V
64 °F 6¼ mi+ 3.500 ft 220° 220° 11 kt METAR LFQQ 010930Z AUTO 22011KT 9999 BKN035 BKN042 BKN050 18/09 Q1018 NOSIG
11:00 am
V
64 °F 6¼ mi+ 3.000 ft 220° 220° 10 kt METAR LFQQ 010900Z AUTO 22010KT 9999 BKN030 BKN036 BKN048 18/11 Q1018 NOSIG
10:30 am
V
63 °F 6¼ mi+ 3.200 ft 220° 220° 8 kt METAR LFQQ 010830Z AUTO 22008KT 190V260 9999 SCT026 BKN032 17/10 Q1018 NOSIG
10:00 am
V
61 °F 6¼ mi+ - 230° 230° 11 kt METAR LFQQ 010800Z AUTO 23011KT 190V260 9999 SCT024 16/10 Q1017 NOSIG
9:30 am
V
61 °F 6¼ mi+ - 230° 230° 9 kt METAR LFQQ 010730Z AUTO 23009KT 190V250 9999 FEW017 16/11 Q1017 NOSIG
9:00 am
V
59 °F 6¼ mi+ - 220° 220° 10 kt METAR LFQQ 010700Z AUTO 22010KT 190V250 9999 FEW015 15/11 Q1017 NOSIG
8:30 am
V
57 °F 6¼ mi+ - 220° 220° 10 kt METAR LFQQ 010630Z AUTO 22010KT CAVOK 14/11 Q1017 NOSIG
8:00 am
V
55 °F 6¼ mi+ - 210° 210° 7 kt METAR LFQQ 010600Z AUTO 21007KT CAVOK 13/11 Q1017 NOSIG
7:30 am
V
54 °F 6¼ mi+ - 200° 200° 5 kt METAR LFQQ 010530Z AUTO 20005KT 170V240 CAVOK 12/11 Q1017 NOSIG
7:00 am
V
52 °F 6¼ mi+ - 210° 210° 4 kt METAR LFQQ 010500Z AUTO 21004KT CAVOK 11/11 Q1017 TEMPO 2000 BR
6:30 am
V
52 °F 6¼ mi+ - 220° 220° 3 kt METAR LFQQ 010430Z AUTO 22003KT CAVOK 11/10 Q1017 TEMPO 2000 BR
6:00 am
V
52 °F 6¼ mi+ - 220° 220° 5 kt METAR LFQQ 010400Z AUTO 22005KT CAVOK 11/10 Q1017 TEMPO 2000 BR
5:30 am
V
52 °F 6¼ mi+ - 220° 220° 5 kt METAR LFQQ 010330Z AUTO 22005KT CAVOK 11/10 Q1016 TEMPO 2000 BR
5:00 am
V
52 °F 6¼ mi+ - 200° 200° 6 kt METAR LFQQ 010300Z AUTO 20006KT CAVOK 11/10 Q1017 TEMPO 2000 BR
4:30 am
V
52 °F 6¼ mi+ - 200° 200° 4 kt METAR LFQQ 010230Z AUTO 20004KT CAVOK 11/10 Q1016 TEMPO 2000 BR
4:00 am
V
52 °F 6¼ mi+ - 180° 180° 6 kt METAR LFQQ 010200Z AUTO 18006KT CAVOK 11/10 Q1016 TEMPO 2000 BR
3:30 am
V
52 °F 6¼ mi+ - 180° 180° 6 kt METAR LFQQ 010130Z AUTO 18006KT CAVOK 11/11 Q1016 TEMPO 2000 BR
3:00 am
V
54 °F 6¼ mi+ - 200° 200° 4 kt METAR LFQQ 010100Z AUTO 20004KT CAVOK 12/11 Q1016 TEMPO 2000 BR
2:30 am
V
54 °F 6¼ mi+ - 210° 210° 3 kt METAR LFQQ 010030Z AUTO 21003KT CAVOK 12/11 Q1016 TEMPO 2000 BR
2:00 am
V
55 °F 6¼ mi+ - 220° 220° 4 kt METAR LFQQ 010000Z AUTO 22004KT 9999 FEW025 SCT096 13/12 Q1016 TEMPO 2000 BR
1:30 am
V
55 °F 6¼ mi+ 9.600 ft 220° 220° 5 kt METAR LFQQ 302330Z AUTO 22005KT 9999 FEW028 BKN096 13/12 Q1016 TEMPO 2000 BR
1:00 am
V
57 °F 6¼ mi+ 10.000 ft 220° 220° 5 kt METAR LFQQ 302300Z AUTO 22005KT 9999 FEW025 SCT086 OVC100 14/12 Q1016 TEMPO 2000 BR
12:30 am
V
57 °F 6¼ mi+ 10.000 ft 230° 230° 4 kt METAR LFQQ 302230Z AUTO 23004KT 9999 FEW032 BKN100 14/12 Q1015 TEMPO 2000 BR
12:00 am
V
57 °F 6¼ mi+ 10.000 ft 220° 220° 4 kt METAR LFQQ 302200Z AUTO 22004KT 9999 FEW044 SCT080 BKN100 14/13 Q1015 NOSIG

30 juin 2022

Temps Code Temps Temp. Vue Base cloud Vent METAR/SPECI
11:30 pm
V
57 °F 6¼ mi+ 8.600 ft 200° 200° 3 kt METAR LFQQ 302130Z AUTO 20003KT 9999 FEW038 OVC086 14/13 Q1015 NOSIG
11:00 pm
V
59 °F 6¼ mi+ - 190° 190° 5 kt METAR LFQQ 302100Z AUTO 19005KT CAVOK 15/13 Q1015 NOSIG
10:30 pm
V
59 °F 6¼ mi+ - 200° 200° 5 kt METAR LFQQ 302030Z AUTO 20005KT 170V230 CAVOK 15/13 Q1015 NOSIG
10:00 pm
V
59 °F 6¼ mi+ 8.600 ft 190° 190° 6 kt METAR LFQQ 302000Z AUTO 19006KT 9999 FEW013 OVC086 15/13 Q1014 NOSIG
9:30 pm
V
59 °F 6¼ mi+ 8.400 ft 150° 150° 4 kt METAR LFQQ 301930Z AUTO 15004KT 9999 FEW012/// BKN084/// BKN190/// //////TCU 15/13 Q1014 BECMG BKN020
9:00 pm
V
61 °F 6¼ mi+ 5.400 ft 150° 150° 4 kt METAR LFQQ 301900Z AUTO 15004KT 9999 FEW015/// BKN054/// BKN064/// ///TCU 16/13 Q1014 TEMPO 4000 SHRA SCT012 BKN020CB
8:30 pm
V
61 °F 6¼ mi+ - 160° 160° 3 kt METAR LFQQ 301830Z AUTO 16003KT 130V190 9999 //////TCU 16/13 Q1014 TEMPO 4000 SHRA SCT012 BKN020CB
8:00 pm
V
59 °F 6¼ mi+ 15.000 ft 180° 180° 5 kt METAR LFQQ 301800Z AUTO 18005KT 9999 FEW014 SCT062 BKN150 15/13 Q1014 TEMPO 4000 SHRA SCT012 BKN020CB
7:30 pm
V
59 °F 6¼ mi+ 16.000 ft 190° 190° 5 kt METAR LFQQ 301730Z AUTO 19005KT 9999 SCT014 SCT020 BKN160 15/13 Q1014 NOSIG
7:00 pm
M
59 °F 6¼ mi+ 1.200 ft 200° 200° 6 kt METAR LFQQ 301700Z AUTO 20006KT 180V240 9999 BKN012/// BKN017/// ///TCU 15/13 Q1014 TEMPO 3000 RA BECMG BKN020
6:30 pm
V
59 °F 6¼ mi+ - 180° 180° 4 kt METAR LFQQ 301630Z AUTO 18004KT 9999 SCT011 SCT130 15/13 Q1013 TEMPO 3000 RA BKN008 BKN013 BKN025TCU
6:00 pm
V
59 °F 6¼ mi+ 5.400 ft 180° 180° 6 kt METAR LFQQ 301600Z AUTO 18006KT 140V210 9999 SCT008 BKN054 BKN130 15/13 Q1014 TEMPO 3000 RA BKN008 BKN013 BKN025TCU
5:30 pm
V
57 °F 6¼ mi+ 4.900 ft 180° 180° 4 kt METAR LFQQ 301530Z AUTO 18004KT 130V210 9999 FEW007/// BKN049/// BKN078/// //////TCU 14/13 Q1014 TEMPO 3000 RA BKN008 BKN013 BKN025TCU
5:00 pm
V
57 °F 6¼ mi+ 8.400 ft 140° 140° 5 kt METAR LFQQ 301500Z AUTO 14005KT 9999 -RA FEW028/// OVC084/// ///TCU 14/12 Q1014 TEMPO 22010KT 3000 RA BKN008 BKN013 BKN025TCU
Données plus anciennes

Télécharge notre application

Un accès facile à toute la météo aéronautique sur ton téléphone portable et ta tablette.
Avec de nombreuses fonctionnalités non disponibles sur le site Web, comme la prise en charge hors ligne et une liste personnelle d'aéroports.

Nous et des tiers suivons ton comportement sur Internet sur notre site Web à l'aide de cookies. Si tu continues, nous supposons que tu acceptes notre politique en matière de cookies. Apprendre plus